sensor_id;sensor_type;location;lat;lon;timestamp;P1;durP1;ratioP1;P2;durP2;ratioP2
68825;SDS011;55841;53.392;10.086;2023-02-17T00:01:45;24.80;;;14.77;;
68825;SDS011;55841;53.392;10.086;2023-02-17T00:04:10;24.05;;;14.15;;
68825;SDS011;55841;53.392;10.086;2023-02-17T00:06:36;23.45;;;13.90;;
68825;SDS011;55841;53.392;10.086;2023-02-17T00:09:01;21.95;;;11.43;;
68825;SDS011;55841;53.392;10.086;2023-02-17T00:11:27;26.35;;;14.05;;
68825;SDS011;55841;53.392;10.086;2023-02-17T00:13:53;22.95;;;12.73;;
68825;SDS011;55841;53.392;10.086;2023-02-17T00:16:20;23.80;;;13.73;;
68825;SDS011;55841;53.392;10.086;2023-02-17T00:18:51;22.27;;;12.02;;
68825;SDS011;55841;53.392;10.086;2023-02-17T00:21:20;21.17;;;11.77;;
68825;SDS011;55841;53.392;10.086;2023-02-17T00:23:47;21.08;;;12.35;;
68825;SDS011;55841;53.392;10.086;2023-02-17T00:26:14;20.80;;;11.10;;
68825;SDS011;55841;53.392;10.086;2023-02-17T00:28:41;21.30;;;11.32;;
68825;SDS011;55841;53.392;10.086;2023-02-17T00:33:34;22.10;;;11.85;;
68825;SDS011;55841;53.392;10.086;2023-02-17T00:36:09;22.88;;;12.95;;
68825;SDS011;55841;53.392;10.086;2023-02-17T00:38:36;20.77;;;11.13;;
68825;SDS011;55841;53.392;10.086;2023-02-17T00:41:01;20.13;;;11.05;;
68825;SDS011;55841;53.392;10.086;2023-02-17T00:43:27;22.52;;;12.65;;
68825;SDS011;55841;53.392;10.086;2023-02-17T00:45:53;22.85;;;12.00;;
68825;SDS011;55841;53.392;10.086;2023-02-17T00:48:18;23.42;;;12.57;;
68825;SDS011;55841;53.392;10.086;2023-02-17T00:50:44;19.80;;;11.43;;
68825;SDS011;55841;53.392;10.086;2023-02-17T00:53:10;22.05;;;12.70;;
68825;SDS011;55841;53.392;10.086;2023-02-17T00:55:36;21.52;;;11.82;;
68825;SDS011;55841;53.392;10.086;2023-02-17T00:58:01;22.35;;;12.80;;
68825;SDS011;55841;53.392;10.086;2023-02-17T01:00:27;19.70;;;12.13;;
68825;SDS011;55841;53.392;10.086;2023-02-17T01:02:52;24.10;;;13.10;;
68825;SDS011;55841;53.392;10.086;2023-02-17T01:05:18;24.92;;;12.93;;
68825;SDS011;55841;53.392;10.086;2023-02-17T01:07:44;21.75;;;12.35;;
68825;SDS011;55841;53.392;10.086;2023-02-17T01:10:09;22.15;;;12.32;;
68825;SDS011;55841;53.392;10.086;2023-02-17T01:12:35;21.98;;;12.50;;
68825;SDS011;55841;53.392;10.086;2023-02-17T01:15:02;23.80;;;13.05;;
68825;SDS011;55841;53.392;10.086;2023-02-17T01:17:27;22.55;;;11.57;;
68825;SDS011;55841;53.392;10.086;2023-02-17T01:19:53;22.65;;;12.68;;
68825;SDS011;55841;53.392;10.086;2023-02-17T01:22:18;21.83;;;11.10;;
68825;SDS011;55841;53.392;10.086;2023-02-17T01:24:44;20.70;;;11.35;;
68825;SDS011;55841;53.392;10.086;2023-02-17T01:27:09;23.40;;;11.82;;
68825;SDS011;55841;53.392;10.086;2023-02-17T01:29:35;23.50;;;12.35;;
68825;SDS011;55841;53.392;10.086;2023-02-17T01:32:00;22.73;;;13.38;;
68825;SDS011;55841;53.392;10.086;2023-02-17T01:34:26;22.63;;;12.55;;
68825;SDS011;55841;53.392;10.086;2023-02-17T01:36:52;23.05;;;12.57;;
68825;SDS011;55841;53.392;10.086;2023-02-17T01:39:17;21.33;;;12.55;;
68825;SDS011;55841;53.392;10.086;2023-02-17T01:41:43;23.23;;;13.50;;
68825;SDS011;55841;53.392;10.086;2023-02-17T01:44:10;24.20;;;14.13;;
68825;SDS011;55841;53.392;10.086;2023-02-17T01:46:40;25.23;;;12.55;;
68825;SDS011;55841;53.392;10.086;2023-02-17T01:49:11;22.85;;;12.73;;
68825;SDS011;55841;53.392;10.086;2023-02-17T01:51:48;24.70;;;12.93;;
68825;SDS011;55841;53.392;10.086;2023-02-17T01:54:19;24.50;;;12.02;;
68825;SDS011;55841;53.392;10.086;2023-02-17T01:56:49;23.50;;;12.98;;
68825;SDS011;55841;53.392;10.086;2023-02-17T01:59:19;26.33;;;14.00;;
68825;SDS011;55841;53.392;10.086;2023-02-17T02:01:46;24.40;;;14.00;;
68825;SDS011;55841;53.392;10.086;2023-02-17T02:04:17;23.13;;;13.13;;
68825;SDS011;55841;53.392;10.086;2023-02-17T02:06:44;20.40;;;11.10;;
68825;SDS011;55841;53.392;10.086;2023-02-17T02:11:56;23.65;;;11.65;;
68825;SDS011;55841;53.392;10.086;2023-02-17T02:14:22;22.40;;;12.40;;
68825;SDS011;55841;53.392;10.086;2023-02-17T02:17:05;20.77;;;11.15;;
68825;SDS011;55841;53.392;10.086;2023-02-17T02:33:10;20.95;;;11.95;;
68825;SDS011;55841;53.392;10.086;2023-02-17T02:35:51;20.63;;;10.45;;
68825;SDS011;55841;53.392;10.086;2023-02-17T02:41:01;19.42;;;10.68;;
68825;SDS011;55841;53.392;10.086;2023-02-17T02:43:34;19.83;;;10.38;;
68825;SDS011;55841;53.392;10.086;2023-02-17T02:46:01;19.92;;;10.65;;
68825;SDS011;55841;53.392;10.086;2023-02-17T02:48:27;18.27;;;10.20;;
68825;SDS011;55841;53.392;10.086;2023-02-17T02:50:57;17.20;;;9.95;;
68825;SDS011;55841;53.392;10.086;2023-02-17T02:59:09;16.63;;;8.77;;
68825;SDS011;55841;53.392;10.086;2023-02-17T03:04:19;18.02;;;10.00;;
68825;SDS011;55841;53.392;10.086;2023-02-17T03:07:08;19.60;;;9.43;;
68825;SDS011;55841;53.392;10.086;2023-02-17T03:09:43;18.80;;;9.95;;
68825;SDS011;55841;53.392;10.086;2023-02-17T03:12:09;17.98;;;9.70;;
68825;SDS011;55841;53.392;10.086;2023-02-17T03:14:35;17.48;;;9.88;;
68825;SDS011;55841;53.392;10.086;2023-02-17T03:17:02;16.73;;;8.85;;
68825;SDS011;55841;53.392;10.086;2023-02-17T03:19:28;17.08;;;8.40;;
68825;SDS011;55841;53.392;10.086;2023-02-17T03:21:58;15.82;;;8.48;;
68825;SDS011;55841;53.392;10.086;2023-02-17T03:24:35;15.18;;;7.03;;
68825;SDS011;55841;53.392;10.086;2023-02-17T03:27:01;17.98;;;9.02;;
68825;SDS011;55841;53.392;10.086;2023-02-17T03:29:26;19.10;;;9.57;;
68825;SDS011;55841;53.392;10.086;2023-02-17T03:31:52;15.13;;;8.18;;
68825;SDS011;55841;53.392;10.086;2023-02-17T03:34:17;16.80;;;8.05;;
68825;SDS011;55841;53.392;10.086;2023-02-17T03:36:43;15.60;;;8.10;;
68825;SDS011;55841;53.392;10.086;2023-02-17T03:39:08;16.83;;;7.88;;
68825;SDS011;55841;53.392;10.086;2023-02-17T03:41:34;16.35;;;8.32;;
68825;SDS011;55841;53.392;10.086;2023-02-17T03:43:59;17.55;;;9.02;;
68825;SDS011;55841;53.392;10.086;2023-02-17T03:46:25;16.17;;;8.57;;
68825;SDS011;55841;53.392;10.086;2023-02-17T03:48:51;13.65;;;6.60;;
68825;SDS011;55841;53.392;10.086;2023-02-17T03:51:17;15.23;;;7.72;;
68825;SDS011;55841;53.392;10.086;2023-02-17T03:53:45;17.30;;;8.27;;
68825;SDS011;55841;53.392;10.086;2023-02-17T03:56:11;16.38;;;8.32;;
68825;SDS011;55841;53.392;10.086;2023-02-17T03:58:38;16.65;;;8.02;;
68825;SDS011;55841;53.392;10.086;2023-02-17T04:01:04;16.27;;;8.18;;
68825;SDS011;55841;53.392;10.086;2023-02-17T04:03:31;16.27;;;8.27;;
68825;SDS011;55841;53.392;10.086;2023-02-17T04:05:57;17.95;;;9.40;;
68825;SDS011;55841;53.392;10.086;2023-02-17T04:08:23;16.02;;;8.32;;
68825;SDS011;55841;53.392;10.086;2023-02-17T04:10:52;16.23;;;8.32;;
68825;SDS011;55841;53.392;10.086;2023-02-17T04:13:20;16.80;;;7.85;;
68825;SDS011;55841;53.392;10.086;2023-02-17T04:15:46;18.15;;;7.57;;
68825;SDS011;55841;53.392;10.086;2023-02-17T04:18:12;14.93;;;7.25;;
68825;SDS011;55841;53.392;10.086;2023-02-17T04:20:38;16.08;;;8.35;;
68825;SDS011;55841;53.392;10.086;2023-02-17T04:23:03;18.35;;;8.60;;
68825;SDS011;55841;53.392;10.086;2023-02-17T04:25:29;16.95;;;7.43;;
68825;SDS011;55841;53.392;10.086;2023-02-17T04:27:54;16.40;;;7.68;;
68825;SDS011;55841;53.392;10.086;2023-02-17T04:30:20;14.82;;;7.25;;
68825;SDS011;55841;53.392;10.086;2023-02-17T04:32:45;16.63;;;8.77;;
68825;SDS011;55841;53.392;10.086;2023-02-17T04:35:11;15.57;;;8.63;;
68825;SDS011;55841;53.392;10.086;2023-02-17T04:37:36;13.90;;;6.35;;
68825;SDS011;55841;53.392;10.086;2023-02-17T04:40:02;17.88;;;8.27;;
68825;SDS011;55841;53.392;10.086;2023-02-17T04:42:28;15.50;;;6.93;;
68825;SDS011;55841;53.392;10.086;2023-02-17T04:44:53;16.45;;;7.90;;
68825;SDS011;55841;53.392;10.086;2023-02-17T04:47:19;16.38;;;8.00;;
68825;SDS011;55841;53.392;10.086;2023-02-17T04:49:44;16.77;;;8.05;;
68825;SDS011;55841;53.392;10.086;2023-02-17T04:52:10;18.33;;;8.85;;
68825;SDS011;55841;53.392;10.086;2023-02-17T04:54:35;17.15;;;7.97;;
68825;SDS011;55841;53.392;10.086;2023-02-17T04:57:01;15.48;;;7.60;;
68825;SDS011;55841;53.392;10.086;2023-02-17T04:59:26;14.73;;;7.28;;
68825;SDS011;55841;53.392;10.086;2023-02-17T05:01:52;16.88;;;7.93;;
68825;SDS011;55841;53.392;10.086;2023-02-17T05:04:17;16.90;;;7.82;;
68825;SDS011;55841;53.392;10.086;2023-02-17T05:06:43;18.02;;;8.90;;
68825;SDS011;55841;53.392;10.086;2023-02-17T05:09:08;17.25;;;8.20;;
68825;SDS011;55841;53.392;10.086;2023-02-17T05:11:34;17.52;;;7.97;;
68825;SDS011;55841;53.392;10.086;2023-02-17T05:13:59;16.55;;;7.38;;
68825;SDS011;55841;53.392;10.086;2023-02-17T05:16:25;17.35;;;8.85;;
68825;SDS011;55841;53.392;10.086;2023-02-17T05:18:51;17.88;;;8.38;;
68825;SDS011;55841;53.392;10.086;2023-02-17T05:21:16;18.25;;;8.43;;
68825;SDS011;55841;53.392;10.086;2023-02-17T05:23:42;18.42;;;8.85;;
68825;SDS011;55841;53.392;10.086;2023-02-17T05:26:07;19.48;;;10.05;;
68825;SDS011;55841;53.392;10.086;2023-02-17T05:28:34;20.05;;;9.70;;
68825;SDS011;55841;53.392;10.086;2023-02-17T05:31:01;21.50;;;10.85;;
68825;SDS011;55841;53.392;10.086;2023-02-17T05:33:27;20.10;;;10.73;;
68825;SDS011;55841;53.392;10.086;2023-02-17T05:35:53;22.67;;;11.57;;
68825;SDS011;55841;53.392;10.086;2023-02-17T05:38:19;20.73;;;10.35;;
68825;SDS011;55841;53.392;10.086;2023-02-17T05:40:44;19.00;;;8.68;;
68825;SDS011;55841;53.392;10.086;2023-02-17T05:43:10;22.90;;;11.27;;
68825;SDS011;55841;53.392;10.086;2023-02-17T05:45:36;21.52;;;10.63;;
68825;SDS011;55841;53.392;10.086;2023-02-17T05:48:01;24.75;;;12.13;;
68825;SDS011;55841;53.392;10.086;2023-02-17T05:50:27;28.00;;;11.20;;
68825;SDS011;55841;53.392;10.086;2023-02-17T05:52:52;26.20;;;11.85;;
68825;SDS011;55841;53.392;10.086;2023-02-17T05:55:18;23.92;;;11.57;;
68825;SDS011;55841;53.392;10.086;2023-02-17T05:57:43;24.95;;;11.82;;
68825;SDS011;55841;53.392;10.086;2023-02-17T06:00:09;23.38;;;10.20;;
68825;SDS011;55841;53.392;10.086;2023-02-17T06:02:35;21.92;;;10.20;;
68825;SDS011;55841;53.392;10.086;2023-02-17T06:05:01;24.92;;;11.82;;
68825;SDS011;55841;53.392;10.086;2023-02-17T06:07:26;25.08;;;11.25;;
68825;SDS011;55841;53.392;10.086;2023-02-17T06:09:52;22.15;;;10.75;;
68825;SDS011;55841;53.392;10.086;2023-02-17T06:12:17;22.17;;;11.10;;
68825;SDS011;55841;53.392;10.086;2023-02-17T06:14:43;22.10;;;10.43;;
68825;SDS011;55841;53.392;10.086;2023-02-17T06:17:09;22.38;;;10.40;;
68825;SDS011;55841;53.392;10.086;2023-02-17T06:19:34;24.15;;;11.20;;
68825;SDS011;55841;53.392;10.086;2023-02-17T06:22:00;22.13;;;9.50;;
68825;SDS011;55841;53.392;10.086;2023-02-17T06:24:25;22.83;;;9.85;;
68825;SDS011;55841;53.392;10.086;2023-02-17T06:26:51;23.33;;;10.32;;
68825;SDS011;55841;53.392;10.086;2023-02-17T06:29:16;24.30;;;10.68;;
68825;SDS011;55841;53.392;10.086;2023-02-17T06:31:42;25.70;;;11.82;;
68825;SDS011;55841;53.392;10.086;2023-02-17T06:34:07;22.65;;;10.60;;
68825;SDS011;55841;53.392;10.086;2023-02-17T06:36:33;26.17;;;10.95;;
68825;SDS011;55841;53.392;10.086;2023-02-17T06:38:58;24.83;;;11.93;;
68825;SDS011;55841;53.392;10.086;2023-02-17T06:47:50;25.15;;;11.32;;
68825;SDS011;55841;53.392;10.086;2023-02-17T06:54:08;28.65;;;12.63;;
68825;SDS011;55841;53.392;10.086;2023-02-17T06:56:33;27.77;;;12.18;;
68825;SDS011;55841;53.392;10.086;2023-02-17T06:58:59;27.40;;;12.57;;
68825;SDS011;55841;53.392;10.086;2023-02-17T07:01:25;27.27;;;12.50;;
68825;SDS011;55841;53.392;10.086;2023-02-17T07:03:51;27.45;;;12.75;;
68825;SDS011;55841;53.392;10.086;2023-02-17T07:06:18;31.30;;;14.32;;
68825;SDS011;55841;53.392;10.086;2023-02-17T07:11:11;28.65;;;12.98;;
68825;SDS011;55841;53.392;10.086;2023-02-17T07:13:37;28.75;;;12.82;;
68825;SDS011;55841;53.392;10.086;2023-02-17T07:16:03;31.73;;;14.57;;
68825;SDS011;55841;53.392;10.086;2023-02-17T07:18:29;30.38;;;14.20;;
68825;SDS011;55841;53.392;10.086;2023-02-17T07:20:55;31.88;;;13.45;;
68825;SDS011;55841;53.392;10.086;2023-02-17T07:23:20;30.20;;;13.95;;
68825;SDS011;55841;53.392;10.086;2023-02-17T07:25:46;29.70;;;14.93;;
68825;SDS011;55841;53.392;10.086;2023-02-17T07:28:12;29.35;;;14.73;;
68825;SDS011;55841;53.392;10.086;2023-02-17T07:30:38;28.13;;;12.38;;
68825;SDS011;55841;53.392;10.086;2023-02-17T07:33:04;29.92;;;14.38;;
68825;SDS011;55841;53.392;10.086;2023-02-17T07:35:30;29.95;;;13.35;;
68825;SDS011;55841;53.392;10.086;2023-02-17T07:37:56;29.05;;;13.05;;
68825;SDS011;55841;53.392;10.086;2023-02-17T07:40:22;29.05;;;13.70;;
68825;SDS011;55841;53.392;10.086;2023-02-17T07:42:48;30.55;;;13.73;;
68825;SDS011;55841;53.392;10.086;2023-02-17T07:45:14;25.75;;;12.18;;
68825;SDS011;55841;53.392;10.086;2023-02-17T07:47:40;24.33;;;10.68;;
68825;SDS011;55841;53.392;10.086;2023-02-17T07:50:06;28.67;;;13.05;;
68825;SDS011;55841;53.392;10.086;2023-02-17T07:52:34;24.15;;;11.10;;
68825;SDS011;55841;53.392;10.086;2023-02-17T07:55:00;27.45;;;12.52;;
68825;SDS011;55841;53.392;10.086;2023-02-17T07:57:26;27.52;;;12.63;;
68825;SDS011;55841;53.392;10.086;2023-02-17T07:59:51;28.05;;;11.93;;
68825;SDS011;55841;53.392;10.086;2023-02-17T08:02:17;28.92;;;13.38;;
68825;SDS011;55841;53.392;10.086;2023-02-17T08:04:43;24.23;;;11.13;;
68825;SDS011;55841;53.392;10.086;2023-02-17T08:07:08;27.25;;;12.75;;
68825;SDS011;55841;53.392;10.086;2023-02-17T08:09:34;26.10;;;11.65;;
68825;SDS011;55841;53.392;10.086;2023-02-17T08:12:00;27.75;;;13.05;;
68825;SDS011;55841;53.392;10.086;2023-02-17T08:14:26;26.20;;;12.98;;
68825;SDS011;55841;53.392;10.086;2023-02-17T08:16:53;22.92;;;10.93;;
68825;SDS011;55841;53.392;10.086;2023-02-17T08:19:18;24.50;;;10.68;;
68825;SDS011;55841;53.392;10.086;2023-02-17T08:21:44;24.73;;;11.27;;
68825;SDS011;55841;53.392;10.086;2023-02-17T08:24:10;22.33;;;10.60;;
68825;SDS011;55841;53.392;10.086;2023-02-17T08:26:36;25.65;;;10.52;;
68825;SDS011;55841;53.392;10.086;2023-02-17T08:29:02;23.25;;;10.07;;
68825;SDS011;55841;53.392;10.086;2023-02-17T08:31:29;23.83;;;10.75;;
68825;SDS011;55841;53.392;10.086;2023-02-17T08:33:58;22.98;;;10.65;;
68825;SDS011;55841;53.392;10.086;2023-02-17T08:36:25;20.65;;;9.40;;
68825;SDS011;55841;53.392;10.086;2023-02-17T08:38:52;20.02;;;9.10;;
68825;SDS011;55841;53.392;10.086;2023-02-17T08:43:47;21.25;;;9.15;;
68825;SDS011;55841;53.392;10.086;2023-02-17T08:46:13;15.35;;;6.95;;
68825;SDS011;55841;53.392;10.086;2023-02-17T08:51:06;21.05;;;9.30;;
68825;SDS011;55841;53.392;10.086;2023-02-17T08:53:33;21.95;;;10.07;;
68825;SDS011;55841;53.392;10.086;2023-02-17T08:55:58;20.45;;;8.75;;
68825;SDS011;55841;53.392;10.086;2023-02-17T08:58:24;17.38;;;7.88;;
68825;SDS011;55841;53.392;10.086;2023-02-17T09:00:49;21.42;;;9.80;;
68825;SDS011;55841;53.392;10.086;2023-02-17T09:03:15;23.83;;;9.38;;
68825;SDS011;55841;53.392;10.086;2023-02-17T09:05:41;19.23;;;8.18;;
68825;SDS011;55841;53.392;10.086;2023-02-17T09:08:07;21.23;;;8.18;;
68825;SDS011;55841;53.392;10.086;2023-02-17T09:10:32;21.58;;;9.50;;
68825;SDS011;55841;53.392;10.086;2023-02-17T09:12:58;16.40;;;7.05;;
68825;SDS011;55841;53.392;10.086;2023-02-17T09:15:23;22.02;;;9.25;;
68825;SDS011;55841;53.392;10.086;2023-02-17T09:17:49;17.83;;;7.82;;
68825;SDS011;55841;53.392;10.086;2023-02-17T09:20:14;19.10;;;8.43;;
68825;SDS011;55841;53.392;10.086;2023-02-17T09:22:40;17.55;;;6.57;;
68825;SDS011;55841;53.392;10.086;2023-02-17T09:25:05;20.40;;;7.72;;
68825;SDS011;55841;53.392;10.086;2023-02-17T09:27:31;19.45;;;8.27;;
68825;SDS011;55841;53.392;10.086;2023-02-17T09:29:57;17.52;;;7.97;;
68825;SDS011;55841;53.392;10.086;2023-02-17T09:32:22;16.80;;;6.38;;
68825;SDS011;55841;53.392;10.086;2023-02-17T09:34:48;17.02;;;7.03;;
68825;SDS011;55841;53.392;10.086;2023-02-17T09:37:14;17.98;;;7.25;;
68825;SDS011;55841;53.392;10.086;2023-02-17T09:39:39;19.02;;;7.85;;
68825;SDS011;55841;53.392;10.086;2023-02-17T09:42:05;18.20;;;6.63;;
68825;SDS011;55841;53.392;10.086;2023-02-17T09:44:40;17.33;;;7.40;;
68825;SDS011;55841;53.392;10.086;2023-02-17T09:47:09;18.10;;;6.40;;
68825;SDS011;55841;53.392;10.086;2023-02-17T09:49:47;15.55;;;6.45;;
68825;SDS011;55841;53.392;10.086;2023-02-17T09:52:25;16.27;;;6.50;;
68825;SDS011;55841;53.392;10.086;2023-02-17T09:55:07;15.13;;;6.47;;
68825;SDS011;55841;53.392;10.086;2023-02-17T09:57:48;17.65;;;7.43;;
68825;SDS011;55841;53.392;10.086;2023-02-17T10:00:22;15.25;;;6.72;;
68825;SDS011;55841;53.392;10.086;2023-02-17T10:03:00;17.65;;;7.38;;
68825;SDS011;55841;53.392;10.086;2023-02-17T10:05:42;16.90;;;7.28;;
68825;SDS011;55841;53.392;10.086;2023-02-17T10:08:17;17.08;;;7.30;;
68825;SDS011;55841;53.392;10.086;2023-02-17T10:10:52;19.02;;;6.82;;
68825;SDS011;55841;53.392;10.086;2023-02-17T10:13:23;14.25;;;5.50;;
68825;SDS011;55841;53.392;10.086;2023-02-17T10:15:53;21.10;;;7.38;;
68825;SDS011;55841;53.392;10.086;2023-02-17T10:18:25;19.65;;;8.10;;
68825;SDS011;55841;53.392;10.086;2023-02-17T10:21:00;16.33;;;7.25;;
68825;SDS011;55841;53.392;10.086;2023-02-17T10:23:40;13.48;;;5.15;;
68825;SDS011;55841;53.392;10.086;2023-02-17T10:29:01;17.52;;;7.20;;
68825;SDS011;55841;53.392;10.086;2023-02-17T10:34:37;17.88;;;7.40;;
68825;SDS011;55841;53.392;10.086;2023-02-17T10:37:49;20.63;;;8.05;;
68825;SDS011;55841;53.392;10.086;2023-02-17T10:40:26;18.20;;;6.95;;
68825;SDS011;55841;53.392;10.086;2023-02-17T10:42:56;20.77;;;8.18;;
68825;SDS011;55841;53.392;10.086;2023-02-17T10:45:29;19.58;;;8.77;;
68825;SDS011;55841;53.392;10.086;2023-02-17T10:48:01;19.92;;;8.73;;
68825;SDS011;55841;53.392;10.086;2023-02-17T10:50:39;19.77;;;8.10;;
68825;SDS011;55841;53.392;10.086;2023-02-17T10:53:11;20.60;;;9.45;;
68825;SDS011;55841;53.392;10.086;2023-02-17T10:55:40;20.23;;;8.23;;
68825;SDS011;55841;53.392;10.086;2023-02-17T11:00:52;20.30;;;8.68;;
68825;SDS011;55841;53.392;10.086;2023-02-17T11:03:19;21.27;;;8.02;;
68825;SDS011;55841;53.392;10.086;2023-02-17T11:06:00;21.27;;;9.43;;
68825;SDS011;55841;53.392;10.086;2023-02-17T11:08:29;18.50;;;7.88;;
68825;SDS011;55841;53.392;10.086;2023-02-17T11:11:15;24.35;;;9.80;;
68825;SDS011;55841;53.392;10.086;2023-02-17T11:13:43;23.23;;;9.10;;
68825;SDS011;55841;53.392;10.086;2023-02-17T11:16:38;24.95;;;9.00;;
68825;SDS011;55841;53.392;10.086;2023-02-17T11:19:52;22.17;;;9.15;;
68825;SDS011;55841;53.392;10.086;2023-02-17T11:22:29;25.85;;;9.57;;
68825;SDS011;55841;53.392;10.086;2023-02-17T11:25:01;17.10;;;7.05;;
68825;SDS011;55841;53.392;10.086;2023-02-17T11:27:30;19.95;;;8.52;;
68825;SDS011;55841;53.392;10.086;2023-02-17T11:30:08;24.25;;;9.18;;
68825;SDS011;55841;53.392;10.086;2023-02-17T11:32:39;22.77;;;9.35;;
68825;SDS011;55841;53.392;10.086;2023-02-17T11:35:16;22.55;;;9.13;;
68825;SDS011;55841;53.392;10.086;2023-02-17T11:38:03;23.25;;;9.75;;
68825;SDS011;55841;53.392;10.086;2023-02-17T11:40:36;25.30;;;8.60;;
68825;SDS011;55841;53.392;10.086;2023-02-17T11:43:03;19.88;;;7.93;;
68825;SDS011;55841;53.392;10.086;2023-02-17T11:48:52;21.88;;;8.85;;
68825;SDS011;55841;53.392;10.086;2023-02-17T11:57:09;24.27;;;9.15;;
68825;SDS011;55841;53.392;10.086;2023-02-17T12:06:00;17.33;;;7.50;;
68825;SDS011;55841;53.392;10.086;2023-02-17T12:11:31;21.98;;;10.27;;
68825;SDS011;55841;53.392;10.086;2023-02-17T12:20:29;21.10;;;8.45;;
68825;SDS011;55841;53.392;10.086;2023-02-17T12:23:13;16.60;;;7.22;;
68825;SDS011;55841;53.392;10.086;2023-02-17T12:36:39;20.85;;;7.97;;
68825;SDS011;55841;53.392;10.086;2023-02-17T12:39:17;14.15;;;5.40;;
68825;SDS011;55841;53.392;10.086;2023-02-17T12:41:56;16.40;;;6.53;;
68825;SDS011;55841;53.392;10.086;2023-02-17T12:44:31;18.02;;;7.07;;
68825;SDS011;55841;53.392;10.086;2023-02-17T12:47:08;20.30;;;8.05;;
68825;SDS011;55841;53.392;10.086;2023-02-17T12:49:45;19.38;;;7.97;;
68825;SDS011;55841;53.392;10.086;2023-02-17T12:52:38;15.48;;;6.30;;
68825;SDS011;55841;53.392;10.086;2023-02-17T12:57:40;18.88;;;7.75;;
68825;SDS011;55841;53.392;10.086;2023-02-17T13:00:23;17.88;;;6.70;;
68825;SDS011;55841;53.392;10.086;2023-02-17T13:02:56;15.38;;;6.35;;
68825;SDS011;55841;53.392;10.086;2023-02-17T13:08:19;18.25;;;7.15;;
68825;SDS011;55841;53.392;10.086;2023-02-17T13:10:59;15.90;;;5.50;;
68825;SDS011;55841;53.392;10.086;2023-02-17T13:13:28;16.33;;;6.70;;
68825;SDS011;55841;53.392;10.086;2023-02-17T13:16:03;13.45;;;5.75;;
68825;SDS011;55841;53.392;10.086;2023-02-17T13:18:35;13.10;;;5.15;;
68825;SDS011;55841;53.392;10.086;2023-02-17T13:21:25;16.88;;;5.55;;
68825;SDS011;55841;53.392;10.086;2023-02-17T13:26:54;11.68;;;4.05;;
68825;SDS011;55841;53.392;10.086;2023-02-17T13:32:06;12.93;;;4.10;;
68825;SDS011;55841;53.392;10.086;2023-02-17T13:34:36;12.40;;;4.35;;
68825;SDS011;55841;53.392;10.086;2023-02-17T13:39:56;12.10;;;3.95;;
68825;SDS011;55841;53.392;10.086;2023-02-17T13:42:33;13.13;;;4.40;;
68825;SDS011;55841;53.392;10.086;2023-02-17T13:47:46;12.88;;;4.10;;
68825;SDS011;55841;53.392;10.086;2023-02-17T13:50:27;12.40;;;4.22;;
68825;SDS011;55841;53.392;10.086;2023-02-17T13:52:53;12.55;;;4.00;;
68825;SDS011;55841;53.392;10.086;2023-02-17T13:55:19;10.73;;;3.55;;
68825;SDS011;55841;53.392;10.086;2023-02-17T13:57:50;11.35;;;3.63;;
68825;SDS011;55841;53.392;10.086;2023-02-17T14:00:27;11.77;;;4.55;;
68825;SDS011;55841;53.392;10.086;2023-02-17T14:03:04;11.95;;;3.65;;
68825;SDS011;55841;53.392;10.086;2023-02-17T14:05:42;11.52;;;3.80;;
68825;SDS011;55841;53.392;10.086;2023-02-17T14:08:27;14.00;;;3.90;;
68825;SDS011;55841;53.392;10.086;2023-02-17T14:11:05;14.25;;;4.30;;
68825;SDS011;55841;53.392;10.086;2023-02-17T14:13:41;12.65;;;4.00;;
68825;SDS011;55841;53.392;10.086;2023-02-17T14:16:23;12.73;;;4.32;;
68825;SDS011;55841;53.392;10.086;2023-02-17T14:18:59;12.70;;;4.13;;
68825;SDS011;55841;53.392;10.086;2023-02-17T14:21:25;9.00;;;3.25;;
68825;SDS011;55841;53.392;10.086;2023-02-17T14:23:52;10.60;;;3.22;;
68825;SDS011;55841;53.392;10.086;2023-02-17T14:28:54;11.98;;;3.40;;
68825;SDS011;55841;53.392;10.086;2023-02-17T14:31:22;11.13;;;3.10;;
68825;SDS011;55841;53.392;10.086;2023-02-17T14:34:01;8.82;;;3.28;;
68825;SDS011;55841;53.392;10.086;2023-02-17T14:36:32;11.50;;;3.22;;
68825;SDS011;55841;53.392;10.086;2023-02-17T14:38:59;11.73;;;3.42;;
68825;SDS011;55841;53.392;10.086;2023-02-17T14:41:26;11.15;;;3.72;;
68825;SDS011;55841;53.392;10.086;2023-02-17T14:43:52;8.43;;;2.80;;
68825;SDS011;55841;53.392;10.086;2023-02-17T14:46:18;10.35;;;3.85;;
68825;SDS011;55841;53.392;10.086;2023-02-17T14:48:44;11.50;;;3.95;;
68825;SDS011;55841;53.392;10.086;2023-02-17T14:51:14;7.55;;;2.40;;
68825;SDS011;55841;53.392;10.086;2023-02-17T14:53:41;13.60;;;3.72;;
68825;SDS011;55841;53.392;10.086;2023-02-17T14:56:09;12.27;;;3.70;;
68825;SDS011;55841;53.392;10.086;2023-02-17T14:58:41;8.40;;;2.58;;
68825;SDS011;55841;53.392;10.086;2023-02-17T15:01:08;12.65;;;3.63;;
68825;SDS011;55841;53.392;10.086;2023-02-17T15:03:38;9.90;;;2.70;;
68825;SDS011;55841;53.392;10.086;2023-02-17T15:06:08;10.80;;;3.42;;
68825;SDS011;55841;53.392;10.086;2023-02-17T15:08:43;11.07;;;3.97;;
68825;SDS011;55841;53.392;10.086;2023-02-17T15:11:43;13.32;;;3.47;;
68825;SDS011;55841;53.392;10.086;2023-02-17T15:14:03;9.25;;;2.25;;
68825;SDS011;55841;53.392;10.086;2023-02-17T15:16:29;7.63;;;2.10;;
68825;SDS011;55841;53.392;10.086;2023-02-17T15:18:55;14.20;;;2.70;;
68825;SDS011;55841;53.392;10.086;2023-02-17T15:21:28;14.18;;;2.70;;
68825;SDS011;55841;53.392;10.086;2023-02-17T15:23:56;9.52;;;2.08;;
68825;SDS011;55841;53.392;10.086;2023-02-17T15:26:23;4.55;;;1.50;;
68825;SDS011;55841;53.392;10.086;2023-02-17T15:28:49;6.93;;;2.08;;
68825;SDS011;55841;53.392;10.086;2023-02-17T15:31:15;9.32;;;2.25;;
68825;SDS011;55841;53.392;10.086;2023-02-17T15:33:42;14.10;;;2.35;;
68825;SDS011;55841;53.392;10.086;2023-02-17T15:36:12;9.25;;;2.15;;
68825;SDS011;55841;53.392;10.086;2023-02-17T15:38:40;8.48;;;1.50;;
68825;SDS011;55841;53.392;10.086;2023-02-17T15:41:13;8.35;;;1.58;;
68825;SDS011;55841;53.392;10.086;2023-02-17T15:43:41;14.40;;;2.50;;
68825;SDS011;55841;53.392;10.086;2023-02-17T15:46:13;7.18;;;2.13;;
68825;SDS011;55841;53.392;10.086;2023-02-17T15:48:41;11.40;;;2.08;;
68825;SDS011;55841;53.392;10.086;2023-02-17T15:51:09;15.88;;;2.88;;
68825;SDS011;55841;53.392;10.086;2023-02-17T15:53:36;15.07;;;2.95;;
68825;SDS011;55841;53.392;10.086;2023-02-17T15:56:01;10.05;;;2.05;;
68825;SDS011;55841;53.392;10.086;2023-02-17T15:58:27;12.55;;;1.98;;
68825;SDS011;55841;53.392;10.086;2023-02-17T16:00:55;14.30;;;1.95;;
68825;SDS011;55841;53.392;10.086;2023-02-17T16:03:24;17.15;;;2.55;;
68825;SDS011;55841;53.392;10.086;2023-02-17T16:05:49;14.63;;;2.60;;
68825;SDS011;55841;53.392;10.086;2023-02-17T16:08:15;16.60;;;2.30;;
68825;SDS011;55841;53.392;10.086;2023-02-17T16:10:41;23.65;;;2.85;;
68825;SDS011;55841;53.392;10.086;2023-02-17T16:13:08;17.63;;;2.35;;
68825;SDS011;55841;53.392;10.086;2023-02-17T16:15:40;14.48;;;2.47;;
68825;SDS011;55841;53.392;10.086;2023-02-17T16:18:08;8.93;;;1.90;;
68825;SDS011;55841;53.392;10.086;2023-02-17T16:20:43;15.38;;;2.60;;